This is the latest recevied weather packets stored in our database for station/object EA1ZE. If no packets are shown the sender has not sent any weather packets the latest 1 day(s).
| Time | Temp. | Humidity | Pressure | Rain* | Wind** | Luminosity | Snow |
|---|---|---|---|---|---|---|---|
| 1777989708 | 15.56° C | 48% | 1013 hPa | 0 mm | 3.13 m/s, 219° | - | - |
| 1777988799 | 14.44° C | 51% | 1013 hPa | 0 mm | 1.34 m/s, 5° | - | - |
| 1777987892 | 13.89° C | 53% | 1013.1 hPa | 0 mm | 1.79 m/s, 234° | - | - |
| 1777986994 | 14.44° C | 50% | 1013.3 hPa | 0 mm | 1.79 m/s, 227° | - | - |
| 1777986095 | 13.89° C | 54% | 1013.4 hPa | 0 mm | 1.34 m/s, 269° | - | - |
| 1777985193 | 13.89° C | 53% | 1013.6 hPa | 0 mm | 1.79 m/s, 253° | - | - |
| 1777984273 | 13.89° C | 52% | 1013.7 hPa | 0 mm | 2.24 m/s, 220° | - | - |
| 1777983355 | 13.33° C | 53% | 1013.6 hPa | 0 mm | 1.34 m/s, 293° | - | - |
| 1777982455 | 13.33° C | 56% | 1013.8 hPa | 0 mm | 1.79 m/s, 257° | - | - |
| 1777981601 | 12.78° C | 57% | 1014 hPa | 0 mm | 1.34 m/s, 206° | - | - |
| 1777980707 | 13.33° C | 57% | 1014.1 hPa | 0 mm | 2.68 m/s, 250° | - | - |
| 1777979793 | 12.22° C | 61% | 1014.2 hPa | 0 mm | 1.34 m/s, 265° | - | - |
| 1777978899 | 12.22° C | 60% | 1014.2 hPa | 0 mm | 2.24 m/s, 291° | - | - |
| 1777977992 | 12.22° C | 59% | 1014.2 hPa | 0 mm | 0.89 m/s, 275° | - | - |
| 1777977095 | 11.67° C | 62% | 1014.1 hPa | 0 mm | 2.68 m/s, 275° | - | - |
| 1777976208 | 11.67° C | 63% | 1014.3 hPa | 0 mm | 1.79 m/s, 296° | - | - |
| 1777975296 | 11.67° C | 64% | 1014.1 hPa | 0 mm | 1.34 m/s, 296° | - | - |
| 1777974407 | 11.11° C | 67% | 1014.1 hPa | 0 mm | 1.79 m/s, 285° | - | - |
| 1777973444 | 10.56° C | 68% | 1014.1 hPa | 0 mm | 1.79 m/s, 254° | - | - |
| 1777972542 | 10.56° C | 70% | 1014.1 hPa | 0 mm | 2.24 m/s, 255° | - | - |
| 1777971645 | 10.56° C | 70% | 1014.1 hPa | 0 mm | 1.34 m/s, 229° | - | - |
| 1777970732 | 10.56° C | 70% | 1014.2 hPa | 0 mm | 1.34 m/s, 296° | - | - |
| 1777969831 | 10.56° C | 70% | 1014.2 hPa | 0 mm | 0.89 m/s, 324° | - | - |
| 1777968937 | 10° C | 69% | 1014.2 hPa | 0 mm | 0.89 m/s, 267° | - | - |
| 1777968044 | 10° C | 69% | 1014.3 hPa | 0 mm | 1.34 m/s, 277° | - | - |
* Rain latest hour (hover to see other rain measurements)
** Current wind speed in m/s (hover to see current wind gust speed)